createdAt,value
2022-08-16T00:01:47.499Z,10.85
2022-08-16T00:06:51.491Z,15.60
2022-08-16T00:11:55.505Z,20.00
2022-08-16T00:17:11.819Z,20.58
2022-08-16T00:22:20.881Z,24.87
2022-08-16T00:27:27.383Z,23.70
2022-08-16T00:32:33.340Z,14.43
2022-08-16T00:37:57.983Z,12.13
2022-08-16T00:42:58.277Z,15.07
2022-08-16T00:48:01.504Z,22.43
2022-08-16T00:53:23.967Z,28.93
2022-08-16T00:58:34.491Z,21.73
2022-08-16T01:03:41.648Z,16.63
2022-08-16T01:08:45.302Z,14.53
2022-08-16T01:13:49.629Z,17.73
2022-08-16T01:19:02.590Z,14.30
2022-08-16T01:24:52.614Z,18.97
2022-08-16T01:30:04.017Z,11.77
2022-08-16T01:35:29.091Z,16.33
2022-08-16T01:40:38.020Z,12.83
2022-08-16T01:45:41.623Z,13.17
2022-08-16T01:51:15.511Z,12.70
2022-08-16T01:56:24.362Z,14.27
2022-08-16T02:01:29.158Z,14.97
2022-08-16T02:06:34.164Z,13.53
2022-08-16T02:11:47.736Z,14.87
2022-08-16T02:16:58.335Z,12.23
2022-08-16T02:22:09.052Z,13.80
2022-08-16T02:27:25.450Z,16.70
2022-08-16T02:32:49.192Z,18.30
2022-08-16T02:37:53.430Z,18.30
2022-08-16T02:43:00.870Z,21.20
2022-08-16T02:48:29.226Z,19.60
2022-08-16T02:53:48.364Z,15.07
2022-08-16T02:58:52.495Z,17.50
2022-08-16T03:04:28.834Z,14.77
2022-08-16T03:09:37.648Z,16.07
2022-08-16T03:14:39.987Z,16.37
2022-08-16T03:19:48.690Z,15.67
2022-08-16T03:25:10.111Z,15.90
2022-08-16T03:30:22.218Z,25.40
2022-08-16T03:35:33.071Z,22.00
2022-08-16T03:40:41.027Z,15.57
2022-08-16T03:45:45.554Z,16.97
2022-08-16T03:50:59.853Z,16.07
2022-08-16T03:56:07.899Z,14.15
2022-08-16T04:01:10.960Z,18.87
2022-08-16T04:06:16.002Z,14.70
2022-08-16T04:11:37.743Z,11.93
2022-08-16T04:16:40.665Z,8.93
2022-08-16T04:22:09.594Z,16.00
2022-08-16T04:27:21.486Z,9.77
2022-08-16T04:32:27.010Z,11.03
2022-08-16T04:37:29.848Z,12.17
2022-08-16T04:42:43.723Z,14.33
2022-08-16T04:47:46.799Z,11.70
2022-08-16T04:53:03.188Z,11.50
2022-08-16T04:58:43.768Z,14.25
2022-08-16T05:03:33.827Z,9.17
2022-08-16T05:08:47.261Z,8.93
2022-08-16T05:13:57.112Z,8.00
2022-08-16T05:19:11.595Z,9.13
2022-08-16T05:24:35.379Z,7.50
2022-08-16T05:30:00.742Z,11.02
2022-08-16T05:35:01.265Z,10.88
2022-08-16T05:40:06.064Z,8.43
2022-08-16T05:45:10.199Z,11.45
2022-08-16T05:50:18.905Z,7.95
2022-08-16T05:55:23.821Z,8.63
2022-08-16T06:00:26.626Z,8.10
2022-08-16T06:05:36.129Z,11.90
2022-08-16T06:10:39.457Z,14.20
2022-08-16T06:16:01.971Z,8.48
2022-08-16T06:21:07.121Z,6.43
2022-08-16T06:26:12.300Z,7.33
2022-08-16T06:31:24.646Z,8.38
2022-08-16T06:36:29.743Z,9.68
2022-08-16T06:41:44.195Z,6.50
2022-08-16T06:46:57.319Z,7.10
2022-08-16T06:52:03.259Z,8.80
2022-08-16T06:57:16.855Z,16.63
2022-08-16T07:02:33.303Z,8.02
2022-08-16T07:07:45.921Z,6.68
2022-08-16T07:13:03.853Z,4.85
2022-08-16T07:18:12.893Z,6.82
2022-08-16T07:23:21.077Z,11.23
2022-08-16T07:28:40.326Z,8.15
2022-08-16T07:33:52.189Z,5.13
2022-08-16T07:39:02.492Z,7.43
2022-08-16T07:44:16.474Z,8.18
2022-08-16T07:49:21.887Z,6.93
2022-08-16T07:54:37.766Z,10.88
2022-08-16T07:59:46.026Z,6.30
2022-08-16T08:04:50.960Z,7.05
2022-08-16T08:09:53.659Z,7.47
2022-08-16T08:14:56.304Z,7.40
2022-08-16T08:19:59.531Z,4.95
2022-08-16T08:25:03.620Z,6.57
2022-08-16T08:30:49.205Z,9.07
2022-08-16T08:35:33.452Z,5.63
2022-08-16T08:40:38.187Z,4.30
2022-08-16T08:45:52.685Z,4.88
2022-08-16T08:50:57.421Z,13.13
2022-08-16T08:56:00.504Z,21.20
2022-08-16T09:01:31.471Z,5.32
2022-08-16T09:06:43.761Z,7.78
2022-08-16T09:12:04.456Z,8.82
2022-08-16T09:17:38.382Z,5.32
2022-08-16T09:22:39.826Z,8.43
2022-08-16T09:27:46.760Z,4.60
2022-08-16T09:33:06.807Z,11.40
2022-08-16T09:38:31.227Z,6.18
2022-08-16T09:43:59.159Z,8.23
2022-08-16T09:48:58.537Z,6.30
2022-08-16T09:54:09.839Z,5.15
2022-08-16T09:59:14.273Z,7.95
2022-08-16T10:04:30.423Z,10.13
2022-08-16T10:09:45.076Z,9.00
2022-08-16T10:14:56.975Z,6.55
2022-08-16T10:20:00.545Z,8.00
2022-08-16T10:25:03.162Z,8.05
2022-08-16T10:30:25.603Z,6.53
2022-08-16T10:35:32.841Z,6.13
2022-08-16T10:40:35.732Z,8.18
2022-08-16T10:45:42.178Z,5.90
2022-08-16T10:51:01.586Z,9.70
2022-08-16T10:56:44.331Z,8.95
2022-08-16T11:07:06.708Z,5.30
2022-08-16T11:12:13.643Z,6.47
2022-08-16T11:22:38.944Z,6.43
2022-08-16T11:27:42.906Z,10.95
2022-08-16T11:32:47.215Z,7.68
2022-08-16T11:38:46.701Z,8.65
2022-08-16T11:43:21.714Z,8.88
2022-08-16T11:48:26.125Z,7.75
2022-08-16T11:53:35.989Z,5.68
2022-08-16T11:58:39.861Z,6.22
2022-08-16T12:03:43.863Z,9.32
2022-08-16T12:08:48.093Z,6.20
2022-08-16T12:13:51.947Z,5.65
2022-08-16T12:18:54.128Z,10.70
2022-08-16T12:23:56.381Z,7.38
2022-08-16T12:28:59.209Z,7.07
2022-08-16T12:34:03.040Z,6.97
2022-08-16T12:39:07.118Z,6.70
2022-08-16T12:44:09.308Z,7.40
2022-08-16T12:49:12.772Z,10.57
2022-08-16T12:54:14.988Z,7.40
2022-08-16T12:59:21.923Z,5.90
2022-08-16T13:04:28.317Z,6.10
2022-08-16T13:09:42.259Z,7.50
2022-08-16T13:14:45.197Z,6.38
2022-08-16T13:20:07.157Z,7.55
2022-08-16T13:25:18.885Z,7.75
2022-08-16T13:30:36.187Z,7.05
2022-08-16T13:35:44.082Z,9.13
2022-08-16T13:40:48.953Z,10.35
2022-08-16T13:45:53.049Z,5.35
2022-08-16T13:51:02.500Z,7.80
2022-08-16T13:56:06.655Z,4.90
2022-08-16T14:01:12.807Z,8.05
2022-08-16T14:06:15.359Z,6.38
2022-08-16T14:11:20.859Z,5.47
2022-08-16T14:16:33.527Z,6.50
2022-08-16T14:21:37.531Z,9.00
2022-08-16T14:26:40.828Z,7.18
2022-08-16T14:31:45.528Z,8.23
2022-08-16T14:36:52.272Z,6.80
2022-08-16T14:41:56.006Z,5.93
2022-08-16T14:46:58.386Z,9.30
2022-08-16T14:52:02.960Z,7.68
2022-08-16T14:57:06.971Z,6.05
2022-08-16T15:02:33.903Z,6.65
2022-08-16T15:07:40.244Z,9.63
2022-08-16T15:12:43.376Z,6.85
2022-08-16T15:17:54.515Z,9.98
2022-08-16T15:23:02.817Z,9.32
2022-08-16T15:28:23.422Z,6.72
2022-08-16T15:33:32.080Z,15.02
2022-08-16T15:38:57.300Z,12.80
2022-08-16T15:44:05.588Z,11.82
2022-08-16T15:49:16.986Z,14.30
2022-08-16T15:54:52.794Z,14.73
2022-08-16T16:00:04.831Z,24.98
2022-08-16T16:05:37.657Z,16.70
2022-08-16T16:10:41.718Z,16.42
2022-08-16T16:16:03.425Z,28.45
2022-08-16T16:21:27.335Z,31.83
2022-08-16T16:26:48.850Z,27.30
2022-08-16T16:31:59.171Z,26.90
2022-08-16T16:37:22.793Z,29.23
2022-08-16T16:42:29.927Z,35.70
2022-08-16T16:47:40.577Z,47.27
2022-08-16T16:53:03.209Z,24.27
2022-08-16T16:58:57.192Z,10.30
2022-08-16T17:04:13.239Z,15.52
2022-08-16T17:09:21.844Z,14.23
2022-08-16T17:14:33.340Z,22.98
2022-08-16T17:19:40.971Z,19.50
2022-08-16T17:24:50.499Z,13.97
2022-08-16T17:29:54.621Z,17.05
2022-08-16T17:35:19.170Z,19.83
2022-08-16T17:40:46.766Z,16.70
2022-08-16T17:45:49.420Z,13.88
2022-08-16T17:50:54.545Z,24.40
2022-08-16T17:55:57.315Z,19.38
2022-08-16T18:01:20.609Z,17.52
2022-08-16T18:06:28.541Z,22.63
2022-08-16T18:11:34.120Z,28.23
2022-08-16T18:16:36.481Z,35.63
2022-08-16T18:21:57.096Z,24.75
2022-08-16T18:27:25.662Z,24.05
2022-08-16T18:32:25.214Z,17.88
2022-08-16T18:37:27.877Z,23.13
2022-08-16T18:42:30.304Z,25.92
2022-08-16T18:47:32.676Z,29.30
2022-08-16T18:52:35.193Z,26.23
2022-08-16T18:57:37.576Z,22.67
2022-08-16T19:02:56.082Z,26.95
2022-08-16T19:08:02.612Z,19.08
2022-08-16T19:13:14.112Z,17.67
2022-08-16T19:18:36.868Z,24.58
2022-08-16T19:23:57.999Z,17.50
2022-08-16T19:29:03.721Z,18.08
2022-08-16T19:34:29.541Z,31.73
2022-08-16T19:39:50.943Z,30.88
2022-08-16T19:44:55.845Z,25.38
2022-08-16T19:49:58.566Z,20.10
2022-08-16T19:55:06.727Z,28.25
2022-08-16T20:00:14.203Z,28.42
2022-08-16T20:05:33.101Z,24.08
2022-08-16T20:10:54.001Z,31.70
2022-08-16T20:15:57.200Z,21.20
2022-08-16T20:20:59.641Z,33.28
2022-08-16T20:26:02.076Z,23.75
2022-08-16T20:31:04.543Z,19.40
2022-08-16T20:36:07.113Z,22.33
2022-08-16T20:41:28.217Z,23.98
2022-08-16T20:46:30.607Z,23.25
2022-08-16T20:51:32.914Z,31.17
2022-08-16T20:56:50.008Z,25.83
2022-08-16T21:02:16.196Z,28.95
2022-08-16T21:07:19.913Z,28.63
2022-08-16T21:12:22.234Z,31.92
2022-08-16T21:17:24.605Z,29.67
2022-08-16T21:22:27.088Z,25.75
2022-08-16T21:27:29.424Z,29.10
2022-08-16T21:32:35.542Z,28.08
2022-08-16T21:37:38.625Z,22.15
2022-08-16T21:42:42.231Z,24.10
2022-08-16T21:47:44.624Z,23.15
2022-08-16T21:52:46.910Z,19.88
2022-08-16T21:57:49.232Z,19.13
2022-08-16T22:02:55.532Z,21.35
2022-08-16T22:08:01.294Z,17.05
2022-08-16T22:13:16.169Z,18.67
2022-08-16T22:18:19.390Z,17.38
2022-08-16T22:23:24.669Z,22.60
2022-08-16T22:28:26.943Z,18.20
2022-08-16T22:33:29.300Z,17.42
2022-08-16T22:38:54.070Z,17.02
2022-08-16T22:43:56.422Z,17.90
2022-08-16T22:49:17.658Z,21.08
2022-08-16T22:54:48.161Z,16.42
2022-08-16T22:59:52.686Z,18.23
2022-08-16T23:05:19.982Z,17.75
2022-08-16T23:10:22.779Z,21.15
2022-08-16T23:15:28.009Z,17.95
2022-08-16T23:20:30.327Z,17.95
2022-08-16T23:25:35.803Z,15.33
2022-08-16T23:30:40.818Z,19.37
2022-08-16T23:35:46.124Z,18.40
2022-08-16T23:41:13.424Z,22.93
2022-08-16T23:46:18.194Z,20.17
2022-08-16T23:51:20.473Z,19.83
2022-08-16T23:56:22.887Z,20.70
